Terminal Aerodrome Forecast
Issued by NWS Hastings, NE

Current Version | Previous Version | Text Only | Print | Product List | Glossary On
Versions: 1 2 3 4 5 6 7 8 9 10 11 12 13
708
FTUS45 KGID 152324
TAFEAR
TAF
KEAR 152324Z 1600/1624 22009KT P6SM FEW250
     FM160700 25007KT P6SM FEW250
     FM161600 35007KT P6SM FEW250
     FM161800 01011KT P6SM SCT250=

USA.gov is the U.S. government's official web portal to all federal, state and local government web resources and services.